sensor_id;sensor_type;location;lat;lon;timestamp;pressure;altitude;pressure_sealevel;temperature;humidity
25638;BME280;13496;51.040;13.680;2022-10-13T00:05:00;100387.69;;;20.30;49.93
25638;BME280;13496;51.040;13.680;2022-10-13T00:10:02;100386.88;;;20.29;49.91
25638;BME280;13496;51.040;13.680;2022-10-13T00:15:06;100390.69;;;20.27;50.02
25638;BME280;13496;51.040;13.680;2022-10-13T00:20:08;100387.25;;;20.26;50.16
25638;BME280;13496;51.040;13.680;2022-10-13T00:25:10;100378.53;;;20.26;50.23
25638;BME280;13496;51.040;13.680;2022-10-13T00:30:12;100378.69;;;20.24;49.94
25638;BME280;13496;51.040;13.680;2022-10-13T00:35:14;100378.88;;;20.23;50.08
25638;BME280;13496;51.040;13.680;2022-10-13T00:40:16;100390.44;;;20.22;49.85
25638;BME280;13496;51.040;13.680;2022-10-13T00:45:24;100376.63;;;20.20;50.11
25638;BME280;13496;51.040;13.680;2022-10-13T00:50:31;100373.81;;;20.21;50.27
25638;BME280;13496;51.040;13.680;2022-10-13T00:55:35;100371.69;;;20.17;50.00
25638;BME280;13496;51.040;13.680;2022-10-13T01:00:38;100366.44;;;20.17;49.95
25638;BME280;13496;51.040;13.680;2022-10-13T01:05:41;100364.81;;;20.16;49.83
25638;BME280;13496;51.040;13.680;2022-10-13T01:16:18;100367.63;;;20.14;50.19
25638;BME280;13496;51.040;13.680;2022-10-13T01:27:07;100360.09;;;20.11;49.95
25638;BME280;13496;51.040;13.680;2022-10-13T01:32:21;100356.44;;;20.12;49.92
25638;BME280;13496;51.040;13.680;2022-10-13T01:37:28;100347.28;;;20.08;49.88
25638;BME280;13496;51.040;13.680;2022-10-13T01:42:44;100345.66;;;20.07;49.89
25638;BME280;13496;51.040;13.680;2022-10-13T01:47:50;100342.38;;;20.05;50.29
25638;BME280;13496;51.040;13.680;2022-10-13T01:52:53;100348.28;;;20.07;49.84
25638;BME280;13496;51.040;13.680;2022-10-13T01:57:56;100338.13;;;20.04;50.29
25638;BME280;13496;51.040;13.680;2022-10-13T02:03:10;100337.09;;;20.05;49.83
25638;BME280;13496;51.040;13.680;2022-10-13T02:13:33;100335.84;;;20.01;50.12
25638;BME280;13496;51.040;13.680;2022-10-13T02:18:37;100324.50;;;20.00;49.90
25638;BME280;13496;51.040;13.680;2022-10-13T02:23:41;100332.59;;;19.99;50.29
25638;BME280;13496;51.040;13.680;2022-10-13T02:28:43;100316.78;;;19.99;50.28
25638;BME280;13496;51.040;13.680;2022-10-13T02:33:45;100327.69;;;19.96;50.18
25638;BME280;13496;51.040;13.680;2022-10-13T02:38:47;100311.22;;;19.94;50.10
25638;BME280;13496;51.040;13.680;2022-10-13T02:43:49;100311.88;;;19.96;49.85
25638;BME280;13496;51.040;13.680;2022-10-13T02:48:50;100316.50;;;19.94;50.07
25638;BME280;13496;51.040;13.680;2022-10-13T02:53:52;100325.78;;;19.90;49.96
25638;BME280;13496;51.040;13.680;2022-10-13T02:58:54;100318.53;;;19.92;50.15
25638;BME280;13496;51.040;13.680;2022-10-13T03:03:56;100310.78;;;19.90;50.17
25638;BME280;13496;51.040;13.680;2022-10-13T03:08:57;100310.97;;;19.89;50.13
25638;BME280;13496;51.040;13.680;2022-10-13T03:13:59;100298.81;;;19.88;49.89
25638;BME280;13496;51.040;13.680;2022-10-13T03:19:01;100305.88;;;19.87;49.93
25638;BME280;13496;51.040;13.680;2022-10-13T03:24:03;100308.91;;;19.84;50.02
25638;BME280;13496;51.040;13.680;2022-10-13T03:29:12;100301.16;;;19.82;50.22
25638;BME280;13496;51.040;13.680;2022-10-13T03:34:16;100300.34;;;19.82;50.08
25638;BME280;13496;51.040;13.680;2022-10-13T03:39:17;100295.63;;;19.77;50.30
25638;BME280;13496;51.040;13.680;2022-10-13T03:44:19;100292.81;;;19.79;50.11
25638;BME280;13496;51.040;13.680;2022-10-13T03:49:21;100299.91;;;19.78;49.92
25638;BME280;13496;51.040;13.680;2022-10-13T03:54:23;100301.06;;;19.76;50.30
25638;BME280;13496;51.040;13.680;2022-10-13T03:59:28;100294.19;;;19.75;50.14
25638;BME280;13496;51.040;13.680;2022-10-13T04:04:32;100305.16;;;19.78;50.35
25638;BME280;13496;51.040;13.680;2022-10-13T04:09:34;100296.81;;;19.75;50.38
25638;BME280;13496;51.040;13.680;2022-10-13T04:14:36;100295.34;;;19.72;50.16
25638;BME280;13496;51.040;13.680;2022-10-13T04:19:43;100288.47;;;19.71;50.54
25638;BME280;13496;51.040;13.680;2022-10-13T04:24:44;100286.03;;;19.70;50.31
25638;BME280;13496;51.040;13.680;2022-10-13T04:29:46;100276.31;;;19.70;50.43
25638;BME280;13496;51.040;13.680;2022-10-13T04:34:48;100279.09;;;19.69;50.86
25638;BME280;13496;51.040;13.680;2022-10-13T04:39:49;100285.38;;;19.68;50.76
25638;BME280;13496;51.040;13.680;2022-10-13T04:44:51;100288.47;;;19.71;50.52
25638;BME280;13496;51.040;13.680;2022-10-13T04:49:56;100281.94;;;19.67;50.59
25638;BME280;13496;51.040;13.680;2022-10-13T04:54:57;100272.22;;;19.68;50.80
25638;BME280;13496;51.040;13.680;2022-10-13T04:59:59;100276.66;;;19.67;50.74
25638;BME280;13496;51.040;13.680;2022-10-13T05:05:06;100268.75;;;19.67;50.70
25638;BME280;13496;51.040;13.680;2022-10-13T05:10:08;100266.13;;;19.67;50.96
25638;BME280;13496;51.040;13.680;2022-10-13T05:15:10;100255.59;;;19.67;50.95
25638;BME280;13496;51.040;13.680;2022-10-13T05:20:11;100260.22;;;19.65;50.80
25638;BME280;13496;51.040;13.680;2022-10-13T05:25:13;100257.59;;;19.65;51.17
25638;BME280;13496;51.040;13.680;2022-10-13T05:30:15;100253.97;;;19.66;50.66
25638;BME280;13496;51.040;13.680;2022-10-13T05:35:17;100245.25;;;19.66;50.70
25638;BME280;13496;51.040;13.680;2022-10-13T05:40:19;100248.72;;;19.66;51.09
25638;BME280;13496;51.040;13.680;2022-10-13T05:45:28;100247.25;;;19.64;51.15
25638;BME280;13496;51.040;13.680;2022-10-13T05:50:33;100252.31;;;19.65;51.06
25638;BME280;13496;51.040;13.680;2022-10-13T05:55:35;100240.16;;;19.64;50.83
25638;BME280;13496;51.040;13.680;2022-10-13T06:00:37;100252.31;;;19.65;51.03
25638;BME280;13496;51.040;13.680;2022-10-13T06:05:40;100250.69;;;19.64;50.68
25638;BME280;13496;51.040;13.680;2022-10-13T06:10:43;100244.63;;;19.64;50.97
25638;BME280;13496;51.040;13.680;2022-10-13T06:15:45;100251.50;;;19.65;51.13
25638;BME280;13496;51.040;13.680;2022-10-13T06:20:47;100243.81;;;19.63;50.77
25638;BME280;13496;51.040;13.680;2022-10-13T06:25:51;100248.25;;;19.63;50.69
25638;BME280;13496;51.040;13.680;2022-10-13T06:30:53;100257.97;;;19.62;50.78
25638;BME280;13496;51.040;13.680;2022-10-13T06:36:00;100251.03;;;19.61;51.21
25638;BME280;13496;51.040;13.680;2022-10-13T06:41:03;100256.78;;;19.65;51.01
25638;BME280;13496;51.040;13.680;2022-10-13T06:46:07;100258.59;;;19.64;50.97
25638;BME280;13496;51.040;13.680;2022-10-13T06:51:10;100260.22;;;19.65;50.63
25638;BME280;13496;51.040;13.680;2022-10-13T06:56:12;100275.66;;;19.68;50.93
25638;BME280;13496;51.040;13.680;2022-10-13T07:01:13;100277.94;;;19.71;50.68
25638;BME280;13496;51.040;13.680;2022-10-13T07:06:16;100269.03;;;19.72;50.73
25638;BME280;13496;51.040;13.680;2022-10-13T07:11:18;100282.47;;;19.77;50.31
25638;BME280;13496;51.040;13.680;2022-10-13T07:16:26;100281.09;;;19.81;50.24
25638;BME280;13496;51.040;13.680;2022-10-13T07:21:27;100284.19;;;19.85;50.66
25638;BME280;13496;51.040;13.680;2022-10-13T07:26:29;100276.44;;;19.83;50.02
25638;BME280;13496;51.040;13.680;2022-10-13T07:31:34;100280.38;;;19.88;50.25
25638;BME280;13496;51.040;13.680;2022-10-13T07:36:36;100268.47;;;19.92;50.33
25638;BME280;13496;51.040;13.680;2022-10-13T07:41:41;100256.38;;;19.97;50.23
25638;BME280;13496;51.040;13.680;2022-10-13T07:46:42;100254.38;;;19.99;50.37
25638;BME280;13496;51.040;13.680;2022-10-13T07:51:44;100243.47;;;20.02;50.20
25638;BME280;13496;51.040;13.680;2022-10-13T07:56:50;100249.56;;;20.03;50.06
25638;BME280;13496;51.040;13.680;2022-10-13T08:01:51;100241.03;;;20.01;50.05
25638;BME280;13496;51.040;13.680;2022-10-13T08:06:53;100239.84;;;20.03;50.11
25638;BME280;13496;51.040;13.680;2022-10-13T08:11:55;100226.84;;;20.02;49.76
25638;BME280;13496;51.040;13.680;2022-10-13T08:16:57;100228.94;;;20.06;49.82
25638;BME280;13496;51.040;13.680;2022-10-13T08:21:58;100222.84;;;20.06;50.27
25638;BME280;13496;51.040;13.680;2022-10-13T08:27:00;100218.84;;;20.10;49.76
25638;BME280;13496;51.040;13.680;2022-10-13T08:32:02;100219.28;;;20.14;50.26
25638;BME280;13496;51.040;13.680;2022-10-13T08:37:03;100207.38;;;20.18;50.08
25638;BME280;13496;51.040;13.680;2022-10-13T08:42:16;100199.91;;;20.21;50.03
25638;BME280;13496;51.040;13.680;2022-10-13T08:47:41;100199.13;;;20.27;49.81
25638;BME280;13496;51.040;13.680;2022-10-13T08:58:26;100195.41;;;20.37;49.82
25638;BME280;13496;51.040;13.680;2022-10-13T09:03:29;100192.19;;;20.41;49.71
25638;BME280;13496;51.040;13.680;2022-10-13T09:08:37;100184.72;;;20.45;49.64
25638;BME280;13496;51.040;13.680;2022-10-13T09:13:41;100185.78;;;20.50;49.33
25638;BME280;13496;51.040;13.680;2022-10-13T09:18:42;100180.78;;;20.56;49.53
25638;BME280;13496;51.040;13.680;2022-10-13T09:23:51;100171.47;;;20.60;49.38
25638;BME280;13496;51.040;13.680;2022-10-13T09:28:54;100178.81;;;20.64;49.16
25638;BME280;13496;51.040;13.680;2022-10-13T09:34:01;100175.81;;;20.67;49.44
25638;BME280;13496;51.040;13.680;2022-10-13T09:39:15;100152.50;;;20.71;49.29
25638;BME280;13496;51.040;13.680;2022-10-13T09:44:29;100158.22;;;20.74;49.13
25638;BME280;13496;51.040;13.680;2022-10-13T09:49:43;100152.56;;;20.77;49.64
25638;BME280;13496;51.040;13.680;2022-10-13T09:54:49;100154.59;;;20.82;49.28
25638;BME280;13496;51.040;13.680;2022-10-13T09:59:54;100147.75;;;20.88;49.16
25638;BME280;13496;51.040;13.680;2022-10-13T10:05:05;100151.63;;;20.92;49.40
25638;BME280;13496;51.040;13.680;2022-10-13T10:10:31;100143.53;;;20.93;48.73
25638;BME280;13496;51.040;13.680;2022-10-13T10:16:00;100135.59;;;20.93;48.78
25638;BME280;13496;51.040;13.680;2022-10-13T10:21:11;100132.97;;;20.93;49.11
25638;BME280;13496;51.040;13.680;2022-10-13T10:26:26;100138.03;;;20.95;49.26
25638;BME280;13496;51.040;13.680;2022-10-13T10:37:01;100124.66;;;20.96;48.98
25638;BME280;13496;51.040;13.680;2022-10-13T10:47:32;100112.94;;;20.99;49.20
25638;BME280;13496;51.040;13.680;2022-10-13T10:58:06;100100.53;;;20.99;49.09
25638;BME280;13496;51.040;13.680;2022-10-13T11:08:45;100076.00;;;21.06;48.83
25638;BME280;13496;51.040;13.680;2022-10-13T11:13:55;100069.91;;;21.05;49.13
25638;BME280;13496;51.040;13.680;2022-10-13T11:19:04;100064.25;;;21.08;48.73
25638;BME280;13496;51.040;13.680;2022-10-13T11:45:51;100025.72;;;21.20;49.00
25638;BME280;13496;51.040;13.680;2022-10-13T11:51:14;100024.31;;;21.24;49.03
25638;BME280;13496;51.040;13.680;2022-10-13T11:56:19;100019.66;;;21.26;48.77
25638;BME280;13496;51.040;13.680;2022-10-13T12:01:21;100025.56;;;21.29;48.94
25638;BME280;13496;51.040;13.680;2022-10-13T12:06:31;100016.41;;;21.31;48.77
25638;BME280;13496;51.040;13.680;2022-10-13T12:11:36;100006.66;;;21.32;48.99
25638;BME280;13496;51.040;13.680;2022-10-13T12:16:51;100000.56;;;21.31;49.03
25638;BME280;13496;51.040;13.680;2022-10-13T12:21:55;100004.03;;;21.32;48.77
25638;BME280;13496;51.040;13.680;2022-10-13T12:26:58;100010.16;;;21.32;48.71
25638;BME280;13496;51.040;13.680;2022-10-13T12:32:00;100007.50;;;21.32;48.68
25638;BME280;13496;51.040;13.680;2022-10-13T12:42:30;100003.81;;;21.26;48.95
25638;BME280;13496;51.040;13.680;2022-10-13T12:47:46;100001.41;;;21.25;49.15
25638;BME280;13496;51.040;13.680;2022-10-13T12:53:16;99997.91;;;21.24;49.02
25638;BME280;13496;51.040;13.680;2022-10-13T12:58:20;99993.66;;;21.23;49.21
25638;BME280;13496;51.040;13.680;2022-10-13T13:03:26;99996.50;;;21.22;49.33
25638;BME280;13496;51.040;13.680;2022-10-13T13:08:29;99993.06;;;21.21;49.21
25638;BME280;13496;51.040;13.680;2022-10-13T13:13:32;99998.94;;;21.23;49.12
25638;BME280;13496;51.040;13.680;2022-10-13T13:18:40;99996.31;;;21.23;49.33
25638;BME280;13496;51.040;13.680;2022-10-13T13:23:44;99986.38;;;21.25;48.98
25638;BME280;13496;51.040;13.680;2022-10-13T13:28:49;99990.84;;;21.25;49.14
25638;BME280;13496;51.040;13.680;2022-10-13T13:33:52;99985.34;;;21.26;48.99
25638;BME280;13496;51.040;13.680;2022-10-13T13:38:53;99986.38;;;21.25;49.36
25638;BME280;13496;51.040;13.680;2022-10-13T13:43:56;99983.09;;;21.23;49.19
25638;BME280;13496;51.040;13.680;2022-10-13T13:48:58;99979.44;;;21.24;49.31
25638;BME280;13496;51.040;13.680;2022-10-13T13:54:00;99980.28;;;21.25;49.37
25638;BME280;13496;51.040;13.680;2022-10-13T13:59:01;99976.63;;;21.26;48.94
25638;BME280;13496;51.040;13.680;2022-10-13T14:04:03;99980.06;;;21.26;49.12
25638;BME280;13496;51.040;13.680;2022-10-13T14:09:05;99963.59;;;21.24;48.96
25638;BME280;13496;51.040;13.680;2022-10-13T14:14:06;99954.88;;;21.24;49.09
25638;BME280;13496;51.040;13.680;2022-10-13T14:19:08;99956.72;;;21.23;48.93
25638;BME280;13496;51.040;13.680;2022-10-13T14:24:11;99953.06;;;21.24;49.33
25638;BME280;13496;51.040;13.680;2022-10-13T14:29:13;99954.06;;;21.23;49.38
25638;BME280;13496;51.040;13.680;2022-10-13T14:34:15;99948.78;;;21.23;49.52
25638;BME280;13496;51.040;13.680;2022-10-13T14:39:17;99950.00;;;21.21;49.54
25638;BME280;13496;51.040;13.680;2022-10-13T14:44:18;99945.56;;;21.21;49.48
25638;BME280;13496;51.040;13.680;2022-10-13T14:49:20;99935.19;;;21.20;49.31
25638;BME280;13496;51.040;13.680;2022-10-13T14:54:23;99942.31;;;21.19;49.24
25638;BME280;13496;51.040;13.680;2022-10-13T14:59:25;99940.69;;;21.18;49.62
25638;BME280;13496;51.040;13.680;2022-10-13T15:04:26;99935.41;;;21.18;49.34
25638;BME280;13496;51.040;13.680;2022-10-13T15:09:28;99932.94;;;21.17;49.34
25638;BME280;13496;51.040;13.680;2022-10-13T15:14:30;99927.88;;;21.15;49.27
25638;BME280;13496;51.040;13.680;2022-10-13T15:19:34;99925.25;;;21.15;49.68
25638;BME280;13496;51.040;13.680;2022-10-13T15:24:37;99912.44;;;21.12;49.40
25638;BME280;13496;51.040;13.680;2022-10-13T15:29:39;99911.63;;;21.12;49.44
25638;BME280;13496;51.040;13.680;2022-10-13T15:34:41;99916.91;;;21.12;49.89
25638;BME280;13496;51.040;13.680;2022-10-13T15:39:42;99913.66;;;21.10;49.61
25638;BME280;13496;51.040;13.680;2022-10-13T15:44:44;99913.88;;;21.08;49.62
25638;BME280;13496;51.040;13.680;2022-10-13T15:49:46;99908.81;;;21.07;49.73
25638;BME280;13496;51.040;13.680;2022-10-13T15:54:47;99913.25;;;21.06;49.65
25638;BME280;13496;51.040;13.680;2022-10-13T15:59:51;99911.03;;;21.03;49.87
25638;BME280;13496;51.040;13.680;2022-10-13T16:04:53;99906.75;;;21.02;49.92
25638;BME280;13496;51.040;13.680;2022-10-13T16:09:55;99916.47;;;21.01;49.70
25638;BME280;13496;51.040;13.680;2022-10-13T16:14:57;99903.50;;;21.00;50.13
25638;BME280;13496;51.040;13.680;2022-10-13T16:19:59;99905.53;;;20.98;50.00
25638;BME280;13496;51.040;13.680;2022-10-13T16:25:01;99903.69;;;20.98;49.93
25638;BME280;13496;51.040;13.680;2022-10-13T16:30:03;99913.44;;;20.98;50.16
25638;BME280;13496;51.040;13.680;2022-10-13T16:35:06;99905.72;;;20.96;50.01
25638;BME280;13496;51.040;13.680;2022-10-13T16:40:09;99913.81;;;20.95;50.36
25638;BME280;13496;51.040;13.680;2022-10-13T16:45:10;99921.75;;;20.95;50.40
25638;BME280;13496;51.040;13.680;2022-10-13T16:50:13;99930.66;;;20.94;50.22
25638;BME280;13496;51.040;13.680;2022-10-13T16:55:15;99929.88;;;20.93;50.04
25638;BME280;13496;51.040;13.680;2022-10-13T17:00:17;99941.44;;;20.92;50.22
25638;BME280;13496;51.040;13.680;2022-10-13T17:05:18;99941.63;;;20.91;50.05
25638;BME280;13496;51.040;13.680;2022-10-13T17:10:20;99940.00;;;20.90;50.17
25638;BME280;13496;51.040;13.680;2022-10-13T17:15:22;99952.59;;;20.88;50.44
25638;BME280;13496;51.040;13.680;2022-10-13T17:20:24;99951.75;;;20.87;50.27
25638;BME280;13496;51.040;13.680;2022-10-13T17:25:26;99957.88;;;20.88;50.58
25638;BME280;13496;51.040;13.680;2022-10-13T17:30:28;99962.28;;;20.87;50.13
25638;BME280;13496;51.040;13.680;2022-10-13T17:35:30;99958.84;;;20.87;50.05
25638;BME280;13496;51.040;13.680;2022-10-13T17:40:36;99958.03;;;20.86;50.17
25638;BME280;13496;51.040;13.680;2022-10-13T17:45:38;99959.06;;;20.85;49.96
25638;BME280;13496;51.040;13.680;2022-10-13T17:50:39;99961.06;;;20.83;50.32
25638;BME280;13496;51.040;13.680;2022-10-13T17:55:41;99967.16;;;20.84;49.95
25638;BME280;13496;51.040;13.680;2022-10-13T18:00:43;99967.38;;;20.82;50.12
25638;BME280;13496;51.040;13.680;2022-10-13T18:05:44;99964.94;;;20.81;50.04
25638;BME280;13496;51.040;13.680;2022-10-13T18:10:46;99967.56;;;20.81;50.41
25638;BME280;13496;51.040;13.680;2022-10-13T18:15:48;99957.19;;;20.79;50.44
25638;BME280;13496;51.040;13.680;2022-10-13T18:20:50;99947.69;;;20.78;50.38
25638;BME280;13496;51.040;13.680;2022-10-13T18:25:51;99963.50;;;20.78;50.48
25638;BME280;13496;51.040;13.680;2022-10-13T18:31:01;99961.06;;;20.76;50.53
25638;BME280;13496;51.040;13.680;2022-10-13T18:36:28;99958.44;;;20.76;50.72
25638;BME280;13496;51.040;13.680;2022-10-13T18:41:30;99946.88;;;20.77;50.87
25638;BME280;13496;51.040;13.680;2022-10-13T18:46:33;99947.03;;;20.76;51.16
25638;BME280;13496;51.040;13.680;2022-10-13T18:51:36;99944.41;;;20.76;51.07
25638;BME280;13496;51.040;13.680;2022-10-13T18:56:37;99941.16;;;20.74;51.07
25638;BME280;13496;51.040;13.680;2022-10-13T19:01:39;99938.53;;;20.74;50.87
25638;BME280;13496;51.040;13.680;2022-10-13T19:06:42;99929.81;;;20.73;51.27
25638;BME280;13496;51.040;13.680;2022-10-13T19:11:44;99925.53;;;20.72;51.17
25638;BME280;13496;51.040;13.680;2022-10-13T19:16:47;99923.09;;;20.71;51.27
25638;BME280;13496;51.040;13.680;2022-10-13T19:21:49;99921.28;;;20.71;51.29
25638;BME280;13496;51.040;13.680;2022-10-13T19:26:51;99925.75;;;20.71;51.31
25638;BME280;13496;51.040;13.680;2022-10-13T19:31:53;99915.41;;;20.69;51.26
25638;BME280;13496;51.040;13.680;2022-10-13T19:36:56;99911.94;;;20.69;51.30
25638;BME280;13496;51.040;13.680;2022-10-13T19:41:59;99918.84;;;20.70;51.08
25638;BME280;13496;51.040;13.680;2022-10-13T19:47:01;99925.31;;;20.67;51.36
25638;BME280;13496;51.040;13.680;2022-10-13T19:52:03;99916.59;;;20.67;51.10
25638;BME280;13496;51.040;13.680;2022-10-13T19:57:04;99927.97;;;20.67;50.90
25638;BME280;13496;51.040;13.680;2022-10-13T20:02:06;99927.31;;;20.65;51.15
25638;BME280;13496;51.040;13.680;2022-10-13T20:07:09;99929.97;;;20.65;51.06
25638;BME280;13496;51.040;13.680;2022-10-13T20:12:11;99930.97;;;20.64;50.85
25638;BME280;13496;51.040;13.680;2022-10-13T20:17:15;99937.28;;;20.63;51.21
25638;BME280;13496;51.040;13.680;2022-10-13T20:22:16;99939.91;;;20.63;51.27
25638;BME280;13496;51.040;13.680;2022-10-13T20:27:18;99933.81;;;20.63;51.11
25638;BME280;13496;51.040;13.680;2022-10-13T20:32:20;99939.09;;;20.63;51.09
25638;BME280;13496;51.040;13.680;2022-10-13T20:37:22;99938.28;;;20.62;51.41
25638;BME280;13496;51.040;13.680;2022-10-13T20:42:23;99935.66;;;20.62;51.32
25638;BME280;13496;51.040;13.680;2022-10-13T20:47:25;99929.75;;;20.60;51.12
25638;BME280;13496;51.040;13.680;2022-10-13T20:52:27;99943.94;;;20.59;51.39
25638;BME280;13496;51.040;13.680;2022-10-13T20:57:28;99943.94;;;20.59;51.21
25638;BME280;13496;51.040;13.680;2022-10-13T21:02:30;99938.69;;;20.59;51.48
25638;BME280;13496;51.040;13.680;2022-10-13T21:07:32;99936.84;;;20.60;51.08
25638;BME280;13496;51.040;13.680;2022-10-13T21:12:33;99931.78;;;20.58;51.40
25638;BME280;13496;51.040;13.680;2022-10-13T21:17:35;99929.53;;;20.55;51.50
25638;BME280;13496;51.040;13.680;2022-10-13T21:22:37;99923.47;;;20.54;51.30
25638;BME280;13496;51.040;13.680;2022-10-13T21:27:41;99930.53;;;20.54;51.19
25638;BME280;13496;51.040;13.680;2022-10-13T21:32:43;99931.75;;;20.51;51.35
25638;BME280;13496;51.040;13.680;2022-10-13T21:37:44;99925.66;;;20.51;51.44
25638;BME280;13496;51.040;13.680;2022-10-13T21:42:46;99930.94;;;20.51;51.08
25638;BME280;13496;51.040;13.680;2022-10-13T21:47:48;99924.03;;;20.50;51.41
25638;BME280;13496;51.040;13.680;2022-10-13T21:52:49;99917.09;;;20.49;51.32
25638;BME280;13496;51.040;13.680;2022-10-13T21:57:51;99925.22;;;20.47;51.23
25638;BME280;13496;51.040;13.680;2022-10-13T22:02:54;99930.66;;;20.46;51.26
25638;BME280;13496;51.040;13.680;2022-10-13T22:07:56;99925.41;;;20.46;51.61
25638;BME280;13496;51.040;13.680;2022-10-13T22:12:58;99913.25;;;20.45;51.58
25638;BME280;13496;51.040;13.680;2022-10-13T22:18:00;99917.06;;;20.42;51.21
25638;BME280;13496;51.040;13.680;2022-10-13T22:23:03;99908.19;;;20.43;51.44
25638;BME280;13496;51.040;13.680;2022-10-13T22:28:05;99901.47;;;20.41;51.63
25638;BME280;13496;51.040;13.680;2022-10-13T22:33:10;99894.56;;;20.40;51.28
25638;BME280;13496;51.040;13.680;2022-10-13T22:38:12;99893.56;;;20.41;51.28
25638;BME280;13496;51.040;13.680;2022-10-13T22:43:14;99889.47;;;20.38;51.22
25638;BME280;13496;51.040;13.680;2022-10-13T22:48:16;99892.13;;;20.38;51.38
25638;BME280;13496;51.040;13.680;2022-10-13T22:53:18;99895.94;;;20.36;51.38
25638;BME280;13496;51.040;13.680;2022-10-13T22:58:20;99902.06;;;20.36;51.21
25638;BME280;13496;51.040;13.680;2022-10-13T23:03:22;99896.97;;;20.35;51.36
25638;BME280;13496;51.040;13.680;2022-10-13T23:08:24;99895.34;;;20.34;51.52
25638;BME280;13496;51.040;13.680;2022-10-13T23:13:26;99892.72;;;20.34;51.28
25638;BME280;13496;51.040;13.680;2022-10-13T23:18:31;99903.47;;;20.32;51.52
25638;BME280;13496;51.040;13.680;2022-10-13T23:23:33;99896.53;;;20.31;51.30
25638;BME280;13496;51.040;13.680;2022-10-13T23:28:35;99883.56;;;20.29;51.59
25638;BME280;13496;51.040;13.680;2022-10-13T23:33:37;99892.28;;;20.30;51.29
25638;BME280;13496;51.040;13.680;2022-10-13T23:38:39;99888.03;;;20.29;51.52
25638;BME280;13496;51.040;13.680;2022-10-13T23:43:41;99881.97;;;20.28;51.25
25638;BME280;13496;51.040;13.680;2022-10-13T23:48:43;99889.03;;;20.28;51.30
25638;BME280;13496;51.040;13.680;2022-10-13T23:53:44;99887.63;;;20.25;51.54
25638;BME280;13496;51.040;13.680;2022-10-13T23:58:47;99873.63;;;20.25;51.31
